Hartford, Connecticut
Traffic Map
Current Weather Conditions
Hartford, Connecticut
Clear
Clear
41°
Feels Like: 37°
Wind Chill: 37° Ceiling: Unl
Heat Index: 41° Visibility: 10mi
Dew Point: 32° Wind: 6mph
Humidity: 70% Direction: 180° (S)
Pressure: 30.24in Gusts: 0mph
Raw Report DataKHFD 190453Z AUTO 18005KT 10SM CLR 05/00 A3024 RMK AO2 SLP241 T00500000 400941011
Traffic Incident Summary
Active as of:
Severity:
Category:
InformationThere was an issue retrieving the traffic information for this location. Please try a different location or try again shortly.
Advertisements
At Last! Intellicast now available for iPhone and Android